sensor_id;sensor_type;location;lat;lon;timestamp;pressure;altitude;pressure_sealevel;temperature;humidity
59168;BME280;44948;55.046;73.266;2022-09-16T00:00:50;101260.41;;;2.37;76.97
59168;BME280;44948;55.046;73.266;2022-09-16T00:02:33;101393.28;;;3.21;77.14
59168;BME280;44948;55.046;73.266;2022-09-16T00:04:21;101327.81;;;2.73;77.57
59168;BME280;44948;55.046;73.266;2022-09-16T00:06:03;101392.59;;;3.11;78.37
59168;BME280;44948;55.046;73.266;2022-09-16T00:07:53;101394.38;;;3.09;78.73
59168;BME280;44948;55.046;73.266;2022-09-16T00:09:39;101407.19;;;3.15;78.78
59168;BME280;44948;55.046;73.266;2022-09-16T00:11:22;101398.53;;;3.16;78.73
59168;BME280;44948;55.046;73.266;2022-09-16T00:13:04;101378.09;;;3.04;78.73
59168;BME280;44948;55.046;73.266;2022-09-16T00:14:47;101361.84;;;2.96;78.67
59168;BME280;44948;55.046;73.266;2022-09-16T00:16:29;101374.50;;;3.10;77.77
59168;BME280;44948;55.046;73.266;2022-09-16T00:18:12;101389.88;;;3.17;78.19
59168;BME280;44948;55.046;73.266;2022-09-16T00:19:56;101377.81;;;3.16;77.81
59168;BME280;44948;55.046;73.266;2022-09-16T00:21:39;101366.88;;;3.02;78.14
59168;BME280;44948;55.046;73.266;2022-09-16T00:23:24;101402.63;;;3.27;78.10
59168;BME280;44948;55.046;73.266;2022-09-16T00:25:10;101333.00;;;2.73;77.96
59168;BME280;44948;55.046;73.266;2022-09-16T00:26:52;101375.53;;;3.01;77.88
59168;BME280;44948;55.046;73.266;2022-09-16T00:28:38;101399.44;;;3.15;78.41
59168;BME280;44948;55.046;73.266;2022-09-16T00:30:21;101412.53;;;3.09;79.46
59168;BME280;44948;55.046;73.266;2022-09-16T00:32:06;101404.75;;;3.09;78.86
59168;BME280;44948;55.046;73.266;2022-09-16T00:33:53;101407.38;;;3.08;78.88
59168;BME280;44948;55.046;73.266;2022-09-16T00:35:36;101406.47;;;3.10;78.63
59168;BME280;44948;55.046;73.266;2022-09-16T00:37:22;101398.69;;;3.10;77.70
59168;BME280;44948;55.046;73.266;2022-09-16T00:39:04;101345.13;;;2.69;77.93
59168;BME280;44948;55.046;73.266;2022-09-16T00:40:50;101411.69;;;3.09;78.04
59168;BME280;44948;55.046;73.266;2022-09-16T00:42:37;101409.28;;;3.00;78.40
59168;BME280;44948;55.046;73.266;2022-09-16T00:45:01;101408.75;;;2.84;79.06
59168;BME280;44948;55.046;73.266;2022-09-16T00:46:46;101410.41;;;2.88;80.83
59168;BME280;44948;55.046;73.266;2022-09-16T00:48:31;101408.56;;;2.93;80.89
59168;BME280;44948;55.046;73.266;2022-09-16T00:52:25;101403.22;;;2.99;81.88
59168;BME280;44948;55.046;73.266;2022-09-16T00:54:13;101401.34;;;3.07;82.32
59168;BME280;44948;55.046;73.266;2022-09-16T00:56:05;101372.22;;;2.96;82.42
59168;BME280;44948;55.046;73.266;2022-09-16T00:57:52;101394.16;;;3.18;82.32
59168;BME280;44948;55.046;73.266;2022-09-16T00:59:39;101380.53;;;3.10;82.55
59168;BME280;44948;55.046;73.266;2022-09-16T01:01:25;101404.31;;;3.29;82.31
59168;BME280;44948;55.046;73.266;2022-09-16T01:03:07;101410.22;;;3.34;81.96
59168;BME280;44948;55.046;73.266;2022-09-16T01:05:02;101394.78;;;3.30;81.96
59168;BME280;44948;55.046;73.266;2022-09-16T01:06:48;101375.97;;;3.21;82.35
59168;BME280;44948;55.046;73.266;2022-09-16T01:08:32;101414.28;;;3.46;82.27
59168;BME280;44948;55.046;73.266;2022-09-16T01:10:17;101420.22;;;3.51;82.78
59168;BME280;44948;55.046;73.266;2022-09-16T01:12:00;101368.19;;;3.21;82.59
59168;BME280;44948;55.046;73.266;2022-09-16T01:13:43;101386.81;;;3.39;82.10
59168;BME280;44948;55.046;73.266;2022-09-16T01:15:45;101414.22;;;3.49;82.20
59168;BME280;44948;55.046;73.266;2022-09-16T01:24:42;101431.91;;;3.69;81.30
59168;BME280;44948;55.046;73.266;2022-09-16T01:26:42;101427.31;;;3.80;81.82
59168;BME280;44948;55.046;73.266;2022-09-16T01:36:47;101433.50;;;4.10;80.56
59168;BME280;44948;55.046;73.266;2022-09-16T01:38:50;101425.88;;;4.04;80.45
59168;BME280;44948;55.046;73.266;2022-09-16T01:40:55;101429.25;;;4.07;81.50
59168;BME280;44948;55.046;73.266;2022-09-16T01:46:44;101435.28;;;4.08;82.20
59168;BME280;44948;55.046;73.266;2022-09-16T01:48:41;101437.94;;;4.37;82.25
59168;BME280;44948;55.046;73.266;2022-09-16T01:50:35;101428.78;;;4.57;82.11
59168;BME280;44948;55.046;73.266;2022-09-16T01:54:25;101428.00;;;4.84;81.95
59168;BME280;44948;55.046;73.266;2022-09-16T01:56:29;101387.59;;;4.74;81.79
59168;BME280;44948;55.046;73.266;2022-09-16T01:58:26;101420.16;;;5.17;82.12
59168;BME280;44948;55.046;73.266;2022-09-16T02:00:15;101432.84;;;5.55;82.52
59168;BME280;44948;55.046;73.266;2022-09-16T02:03:48;101398.78;;;5.88;81.32
59168;BME280;44948;55.046;73.266;2022-09-16T02:05:40;101407.19;;;6.22;80.23
59168;BME280;44948;55.046;73.266;2022-09-16T02:07:31;101430.75;;;6.68;79.64
59168;BME280;44948;55.046;73.266;2022-09-16T02:09:36;101434.50;;;6.84;78.87
59168;BME280;44948;55.046;73.266;2022-09-16T02:11:21;101339.63;;;6.65;79.88
59168;BME280;44948;55.046;73.266;2022-09-16T02:13:21;101432.03;;;7.50;80.29
59168;BME280;44948;55.046;73.266;2022-09-16T02:15:07;101428.19;;;7.80;79.41
59168;BME280;44948;55.046;73.266;2022-09-16T02:17:06;101428.09;;;8.03;77.74
59168;BME280;44948;55.046;73.266;2022-09-16T02:18:55;101422.88;;;8.24;77.08
59168;BME280;44948;55.046;73.266;2022-09-16T02:20:44;101257.53;;;7.40;76.01
59168;BME280;44948;55.046;73.266;2022-09-16T02:22:35;101363.94;;;8.17;75.18
59168;BME280;44948;55.046;73.266;2022-09-16T02:24:22;101432.47;;;8.83;75.52
59168;BME280;44948;55.046;73.266;2022-09-16T02:26:10;101400.69;;;8.92;75.30
59168;BME280;44948;55.046;73.266;2022-09-16T02:28:01;101347.69;;;8.87;74.54
59168;BME280;44948;55.046;73.266;2022-09-16T02:29:53;101383.84;;;9.35;73.27
59168;BME280;44948;55.046;73.266;2022-09-16T02:31:37;101420.72;;;9.84;73.08
59168;BME280;44948;55.046;73.266;2022-09-16T02:33:24;101346.13;;;9.57;71.36
59168;BME280;44948;55.046;73.266;2022-09-16T02:35:16;101356.22;;;9.81;71.20
59168;BME280;44948;55.046;73.266;2022-09-16T02:37:25;101429.66;;;10.49;70.48
59168;BME280;44948;55.046;73.266;2022-09-16T02:39:19;101428.50;;;10.88;71.13
59168;BME280;44948;55.046;73.266;2022-09-16T02:41:05;101431.50;;;11.13;69.49
59168;BME280;44948;55.046;73.266;2022-09-16T02:42:47;101323.31;;;10.59;68.39
59168;BME280;44948;55.046;73.266;2022-09-16T02:44:30;101426.34;;;11.43;67.78
59168;BME280;44948;55.046;73.266;2022-09-16T02:48:14;101426.81;;;11.81;65.93
59168;BME280;44948;55.046;73.266;2022-09-16T02:50:13;101270.38;;;10.84;65.38
59168;BME280;44948;55.046;73.266;2022-09-16T02:58:08;101418.44;;;12.49;62.73
59168;BME280;44948;55.046;73.266;2022-09-16T02:59:55;101352.84;;;12.32;64.04
59168;BME280;44948;55.046;73.266;2022-09-16T03:01:45;101410.16;;;12.83;62.90
59168;BME280;44948;55.046;73.266;2022-09-16T03:03:34;101402.81;;;13.03;61.26
59168;BME280;44948;55.046;73.266;2022-09-16T03:05:16;101295.97;;;12.58;60.33
59168;BME280;44948;55.046;73.266;2022-09-16T03:06:59;101421.34;;;13.01;61.65
59168;BME280;44948;55.046;73.266;2022-09-16T03:08:53;101426.69;;;13.41;58.89
59168;BME280;44948;55.046;73.266;2022-09-16T03:10:43;101401.09;;;13.43;59.09
59168;BME280;44948;55.046;73.266;2022-09-16T03:14:53;101425.75;;;13.83;57.34
59168;BME280;44948;55.046;73.266;2022-09-16T03:19:13;101401.69;;;13.88;54.33
59168;BME280;44948;55.046;73.266;2022-09-16T03:21:20;101421.97;;;14.00;54.56
59168;BME280;44948;55.046;73.266;2022-09-16T03:25:58;101426.16;;;14.29;54.75
59168;BME280;44948;55.046;73.266;2022-09-16T03:30:05;101416.75;;;14.38;52.20
59168;BME280;44948;55.046;73.266;2022-09-16T03:33:52;101400.47;;;14.44;51.26
59168;BME280;44948;55.046;73.266;2022-09-16T03:35:47;101423.28;;;14.58;51.49
59168;BME280;44948;55.046;73.266;2022-09-16T03:37:38;101423.28;;;14.58;50.34
59168;BME280;44948;55.046;73.266;2022-09-16T03:39:25;101429.22;;;14.49;49.60
59168;BME280;44948;55.046;73.266;2022-09-16T03:41:09;101409.78;;;14.37;49.44
59168;BME280;44948;55.046;73.266;2022-09-16T03:42:52;101390.78;;;14.32;48.36
59168;BME280;44948;55.046;73.266;2022-09-16T03:44:39;101407.47;;;14.45;49.86
59168;BME280;44948;55.046;73.266;2022-09-16T03:46:22;101423.44;;;14.69;49.68
59168;BME280;44948;55.046;73.266;2022-09-16T03:48:10;101387.53;;;14.67;49.24
59168;BME280;44948;55.046;73.266;2022-09-16T03:49:59;101222.19;;;13.78;49.21
59168;BME280;44948;55.046;73.266;2022-09-16T03:51:42;101414.81;;;15.04;48.70
59168;BME280;44948;55.046;73.266;2022-09-16T03:53:24;101412.06;;;15.05;48.73
59168;BME280;44948;55.046;73.266;2022-09-16T03:55:11;101340.91;;;14.78;48.63
59168;BME280;44948;55.046;73.266;2022-09-16T03:56:57;101340.63;;;14.94;48.06
59168;BME280;44948;55.046;73.266;2022-09-16T03:58:41;101347.06;;;15.03;46.96
59168;BME280;44948;55.046;73.266;2022-09-16T04:00:26;101389.38;;;15.27;46.53
59168;BME280;44948;55.046;73.266;2022-09-16T04:02:12;101353.97;;;14.92;46.02
59168;BME280;44948;55.046;73.266;2022-09-16T04:04:00;101314.28;;;14.81;47.79
59168;BME280;44948;55.046;73.266;2022-09-16T04:05:50;101402.00;;;15.47;47.07
59168;BME280;44948;55.046;73.266;2022-09-16T04:07:36;101400.56;;;15.54;47.23
59168;BME280;44948;55.046;73.266;2022-09-16T04:09:21;101419.44;;;15.73;46.64
59168;BME280;44948;55.046;73.266;2022-09-16T04:11:04;101421.25;;;15.36;47.49
59168;BME280;44948;55.046;73.266;2022-09-16T04:12:47;101358.84;;;15.22;46.11
59168;BME280;44948;55.046;73.266;2022-09-16T04:14:33;101429.47;;;15.81;46.03
59168;BME280;44948;55.046;73.266;2022-09-16T04:16:21;101412.41;;;15.85;45.37
59168;BME280;44948;55.046;73.266;2022-09-16T04:18:03;101416.44;;;16.02;45.10
59168;BME280;44948;55.046;73.266;2022-09-16T04:19:46;101358.00;;;15.70;44.75
59168;BME280;44948;55.046;73.266;2022-09-16T04:21:33;101297.09;;;15.47;44.53
59168;BME280;44948;55.046;73.266;2022-09-16T04:23:17;101422.63;;;16.36;44.02
59168;BME280;44948;55.046;73.266;2022-09-16T04:25:02;101395.28;;;16.24;43.47
59168;BME280;44948;55.046;73.266;2022-09-16T04:26:53;101273.38;;;15.46;43.87
59168;BME280;44948;55.046;73.266;2022-09-16T04:28:35;101420.63;;;16.51;43.52
59168;BME280;44948;55.046;73.266;2022-09-16T04:30:18;101311.38;;;15.91;43.85
59168;BME280;44948;55.046;73.266;2022-09-16T04:32:04;101425.00;;;16.74;42.97
59168;BME280;44948;55.046;73.266;2022-09-16T04:33:50;101328.16;;;16.25;42.93
59168;BME280;44948;55.046;73.266;2022-09-16T04:35:35;101367.41;;;16.54;42.98
59168;BME280;44948;55.046;73.266;2022-09-16T04:37:23;101423.56;;;16.81;42.71
59168;BME280;44948;55.046;73.266;2022-09-16T04:39:15;101379.69;;;16.66;42.92
59168;BME280;44948;55.046;73.266;2022-09-16T04:41:03;101418.97;;;16.72;41.26
59168;BME280;44948;55.046;73.266;2022-09-16T04:42:53;101347.63;;;16.13;42.01
59168;BME280;44948;55.046;73.266;2022-09-16T04:44:42;101403.47;;;16.21;42.28
59168;BME280;44948;55.046;73.266;2022-09-16T04:46:33;101415.50;;;16.14;42.49
59168;BME280;44948;55.046;73.266;2022-09-16T04:48:18;101422.47;;;16.15;43.58
59168;BME280;44948;55.046;73.266;2022-09-16T04:50:07;101336.56;;;15.97;43.73
59168;BME280;44948;55.046;73.266;2022-09-16T04:51:57;101349.34;;;16.36;42.87
59168;BME280;44948;55.046;73.266;2022-09-16T04:53:43;101352.72;;;16.61;42.95
59168;BME280;44948;55.046;73.266;2022-09-16T04:55:28;101298.78;;;16.39;41.07
59168;BME280;44948;55.046;73.266;2022-09-16T04:57:14;101251.88;;;16.19;41.96
59168;BME280;44948;55.046;73.266;2022-09-16T04:59:02;101409.44;;;17.46;41.80
59168;BME280;44948;55.046;73.266;2022-09-16T05:00:55;101388.59;;;17.53;41.07
59168;BME280;44948;55.046;73.266;2022-09-16T05:02:43;101335.19;;;17.46;41.31
59168;BME280;44948;55.046;73.266;2022-09-16T05:04:32;101386.78;;;17.85;41.38
59168;BME280;44948;55.046;73.266;2022-09-16T05:06:25;101402.72;;;18.06;39.55
59168;BME280;44948;55.046;73.266;2022-09-16T05:08:13;101229.59;;;16.98;40.36
59168;BME280;44948;55.046;73.266;2022-09-16T05:09:56;101413.34;;;18.06;39.14
59168;BME280;44948;55.046;73.266;2022-09-16T05:11:46;101390.53;;;17.83;38.58
59168;BME280;44948;55.046;73.266;2022-09-16T05:13:31;101400.50;;;17.90;39.27
59168;BME280;44948;55.046;73.266;2022-09-16T05:15:17;101333.84;;;17.20;37.76
59168;BME280;44948;55.046;73.266;2022-09-16T05:17:02;101277.31;;;16.98;39.63
59168;BME280;44948;55.046;73.266;2022-09-16T05:19:03;101329.72;;;17.59;39.86
59168;BME280;44948;55.046;73.266;2022-09-16T05:20:49;101324.97;;;17.74;40.30
59168;BME280;44948;55.046;73.266;2022-09-16T05:22:38;101339.00;;;18.06;39.41
59168;BME280;44948;55.046;73.266;2022-09-16T05:24:26;101304.19;;;18.00;38.16
59168;BME280;44948;55.046;73.266;2022-09-16T05:26:17;101380.34;;;18.50;36.64
59168;BME280;44948;55.046;73.266;2022-09-16T05:28:05;101401.09;;;18.57;36.31
59168;BME280;44948;55.046;73.266;2022-09-16T05:29:48;101402.84;;;18.26;36.24
59168;BME280;44948;55.046;73.266;2022-09-16T05:31:38;101327.44;;;17.54;36.36
59168;BME280;44948;55.046;73.266;2022-09-16T05:33:27;101272.75;;;17.21;38.06
59168;BME280;44948;55.046;73.266;2022-09-16T05:35:17;101254.50;;;17.28;37.98
59168;BME280;44948;55.046;73.266;2022-09-16T05:37:16;101395.78;;;18.57;38.10
59168;BME280;44948;55.046;73.266;2022-09-16T05:39:01;101402.75;;;18.98;37.54
59168;BME280;44948;55.046;73.266;2022-09-16T05:40:49;101281.44;;;18.37;36.83
59168;BME280;44948;55.046;73.266;2022-09-16T05:42:35;101231.63;;;18.20;35.21
59168;BME280;44948;55.046;73.266;2022-09-16T05:44:20;101245.09;;;18.38;36.30
59168;BME280;44948;55.046;73.266;2022-09-16T05:46:15;101385.56;;;19.52;35.78
59168;BME280;44948;55.046;73.266;2022-09-16T05:48:01;101323.47;;;19.22;36.18
59168;BME280;44948;55.046;73.266;2022-09-16T05:49:49;101230.41;;;18.83;34.78
59168;BME280;44948;55.046;73.266;2022-09-16T05:51:39;101397.03;;;19.62;34.66
59168;BME280;44948;55.046;73.266;2022-09-16T05:53:35;101371.69;;;19.58;35.85
59168;BME280;44948;55.046;73.266;2022-09-16T05:55:24;101306.38;;;19.25;35.39
59168;BME280;44948;55.046;73.266;2022-09-16T05:57:13;101289.28;;;18.89;34.73
59168;BME280;44948;55.046;73.266;2022-09-16T05:59:02;101354.84;;;19.48;35.77
59168;BME280;44948;55.046;73.266;2022-09-16T06:00:50;101368.31;;;19.75;34.32
59168;BME280;44948;55.046;73.266;2022-09-16T06:02:32;101373.31;;;19.39;35.17
59168;BME280;44948;55.046;73.266;2022-09-16T06:04:21;101361.03;;;19.58;34.48
59168;BME280;44948;55.046;73.266;2022-09-16T06:06:08;101366.66;;;19.55;33.62
59168;BME280;44948;55.046;73.266;2022-09-16T06:07:55;101367.31;;;19.37;33.32
59168;BME280;44948;55.046;73.266;2022-09-16T06:09:43;101369.44;;;19.43;33.93
59168;BME280;44948;55.046;73.266;2022-09-16T06:11:35;101278.09;;;19.14;34.34
59168;BME280;44948;55.046;73.266;2022-09-16T06:13:24;101336.38;;;19.56;33.47
59168;BME280;44948;55.046;73.266;2022-09-16T06:15:12;101337.22;;;19.56;32.74
59168;BME280;44948;55.046;73.266;2022-09-16T06:17:04;101363.66;;;19.96;33.88
59168;BME280;44948;55.046;73.266;2022-09-16T06:18:49;101360.53;;;20.20;32.69
59168;BME280;44948;55.046;73.266;2022-09-16T06:20:32;101358.53;;;20.32;33.58
59168;BME280;44948;55.046;73.266;2022-09-16T06:22:21;101161.09;;;19.24;31.94
59168;BME280;44948;55.046;73.266;2022-09-16T06:24:04;101362.03;;;20.42;33.87
59168;BME280;44948;55.046;73.266;2022-09-16T06:26:07;101365.06;;;20.57;32.82
59168;BME280;44948;55.046;73.266;2022-09-16T06:27:56;101359.66;;;20.67;32.77
59168;BME280;44948;55.046;73.266;2022-09-16T06:29:41;101326.06;;;20.56;31.22
59168;BME280;44948;55.046;73.266;2022-09-16T06:31:29;101255.88;;;20.00;31.68
59168;BME280;44948;55.046;73.266;2022-09-16T06:33:14;101351.28;;;20.61;31.94
59168;BME280;44948;55.046;73.266;2022-09-16T06:35:03;101342.50;;;20.51;32.40
59168;BME280;44948;55.046;73.266;2022-09-16T06:36:46;101295.69;;;20.02;32.42
59168;BME280;44948;55.046;73.266;2022-09-16T06:38:31;101334.31;;;20.25;32.16
59168;BME280;44948;55.046;73.266;2022-09-16T06:40:25;101258.41;;;19.92;32.55
59168;BME280;44948;55.046;73.266;2022-09-16T06:42:14;101349.22;;;20.55;32.04
59168;BME280;44948;55.046;73.266;2022-09-16T06:44:05;101344.88;;;20.54;31.78
59168;BME280;44948;55.046;73.266;2022-09-16T06:45:58;101320.47;;;20.49;30.92
59168;BME280;44948;55.046;73.266;2022-09-16T06:47:49;101345.94;;;20.61;31.17
59168;BME280;44948;55.046;73.266;2022-09-16T06:49:34;101263.69;;;20.12;31.23
59168;BME280;44948;55.046;73.266;2022-09-16T06:51:26;101317.41;;;20.44;31.98
59168;BME280;44948;55.046;73.266;2022-09-16T06:53:13;101337.84;;;20.07;33.60
59168;BME280;44948;55.046;73.266;2022-09-16T06:55:00;101336.84;;;20.27;32.68
59168;BME280;44948;55.046;73.266;2022-09-16T06:56:55;101334.91;;;20.10;31.71
59168;BME280;44948;55.046;73.266;2022-09-16T06:58:43;101319.78;;;20.00;32.69
59168;BME280;44948;55.046;73.266;2022-09-16T07:00:28;101329.28;;;20.13;34.51
59168;BME280;44948;55.046;73.266;2022-09-16T07:02:18;101316.66;;;20.15;33.05
59168;BME280;44948;55.046;73.266;2022-09-16T07:04:09;101312.72;;;20.19;32.40
59168;BME280;44948;55.046;73.266;2022-09-16T07:05:56;101320.25;;;20.33;33.99
59168;BME280;44948;55.046;73.266;2022-09-16T07:07:44;101222.91;;;19.64;32.45
59168;BME280;44948;55.046;73.266;2022-09-16T07:09:33;101233.69;;;19.63;31.92
59168;BME280;44948;55.046;73.266;2022-09-16T07:11:20;101312.75;;;19.99;32.36
59168;BME280;44948;55.046;73.266;2022-09-16T07:13:05;101292.63;;;19.87;35.64
59168;BME280;44948;55.046;73.266;2022-09-16T07:14:52;101293.25;;;20.09;33.02
59168;BME280;44948;55.046;73.266;2022-09-16T07:16:46;101293.13;;;20.10;32.76
59168;BME280;44948;55.046;73.266;2022-09-16T07:18:30;101215.97;;;19.44;31.56
59168;BME280;44948;55.046;73.266;2022-09-16T07:20:15;101230.50;;;19.40;34.05
59168;BME280;44948;55.046;73.266;2022-09-16T07:22:04;101318.97;;;19.90;32.18
59168;BME280;44948;55.046;73.266;2022-09-16T07:23:47;101304.38;;;19.94;33.33
59168;BME280;44948;55.046;73.266;2022-09-16T07:25:33;101221.56;;;19.41;33.57
59168;BME280;44948;55.046;73.266;2022-09-16T07:27:23;101304.91;;;20.08;33.85
59168;BME280;44948;55.046;73.266;2022-09-16T07:29:09;101300.28;;;20.10;33.93
59168;BME280;44948;55.046;73.266;2022-09-16T07:30:51;101300.66;;;20.15;33.14
59168;BME280;44948;55.046;73.266;2022-09-16T07:32:34;101304.63;;;20.11;32.82
59168;BME280;44948;55.046;73.266;2022-09-16T07:34:16;101308.81;;;20.13;32.69
59168;BME280;44948;55.046;73.266;2022-09-16T07:35:59;101267.09;;;19.94;33.25
59168;BME280;44948;55.046;73.266;2022-09-16T07:37:41;101305.66;;;19.81;34.34
59168;BME280;44948;55.046;73.266;2022-09-16T07:39:24;101301.66;;;20.14;34.65
59168;BME280;44948;55.046;73.266;2022-09-16T07:41:09;101300.22;;;20.29;32.87
59168;BME280;44948;55.046;73.266;2022-09-16T07:42:52;101297.56;;;20.29;32.77
59168;BME280;44948;55.046;73.266;2022-09-16T07:44:34;101287.09;;;20.18;32.75
59168;BME280;44948;55.046;73.266;2022-09-16T07:46:19;101296.22;;;20.06;32.36
59168;BME280;44948;55.046;73.266;2022-09-16T07:48:01;101286.03;;;20.01;33.23
59168;BME280;44948;55.046;73.266;2022-09-16T07:49:44;101268.09;;;19.93;33.04
59168;BME280;44948;55.046;73.266;2022-09-16T07:51:27;101284.88;;;20.03;31.50
59168;BME280;44948;55.046;73.266;2022-09-16T07:53:10;101280.81;;;19.99;32.99
59168;BME280;44948;55.046;73.266;2022-09-16T07:54:52;101277.19;;;20.00;33.21
59168;BME280;44948;55.046;73.266;2022-09-16T07:56:36;101281.78;;;20.08;32.14
59168;BME280;44948;55.046;73.266;2022-09-16T07:58:19;101281.78;;;19.98;32.21
59168;BME280;44948;55.046;73.266;2022-09-16T08:00:01;101278.13;;;19.43;33.27
59168;BME280;44948;55.046;73.266;2022-09-16T08:02:04;101274.16;;;19.76;32.70
59168;BME280;44948;55.046;73.266;2022-09-16T08:03:46;101280.03;;;19.89;31.80
59168;BME280;44948;55.046;73.266;2022-09-16T08:05:29;101270.59;;;19.95;32.22
59168;BME280;44948;55.046;73.266;2022-09-16T08:07:11;101276.47;;;19.98;33.67
59168;BME280;44948;55.046;73.266;2022-09-16T08:08:55;101274.41;;;19.92;33.09
59168;BME280;44948;55.046;73.266;2022-09-16T08:10:38;101268.97;;;19.84;33.71
59168;BME280;44948;55.046;73.266;2022-09-16T08:12:20;101249.50;;;19.74;32.96
59168;BME280;44948;55.046;73.266;2022-09-16T08:14:05;101274.09;;;19.95;33.28
59168;BME280;44948;55.046;73.266;2022-09-16T08:15:48;101257.44;;;19.93;33.10
59168;BME280;44948;55.046;73.266;2022-09-16T08:17:30;101230.72;;;19.85;33.24
59168;BME280;44948;55.046;73.266;2022-09-16T08:19:15;101260.72;;;20.15;33.37
59168;BME280;44948;55.046;73.266;2022-09-16T08:21:03;101232.88;;;19.99;33.13
59168;BME280;44948;55.046;73.266;2022-09-16T08:22:48;101257.59;;;19.82;31.63
59168;BME280;44948;55.046;73.266;2022-09-16T08:24:30;101263.69;;;19.36;32.31
59168;BME280;44948;55.046;73.266;2022-09-16T08:26:14;101257.53;;;18.87;32.39
59168;BME280;44948;55.046;73.266;2022-09-16T08:27:58;101229.38;;;18.56;33.06
59168;BME280;44948;55.046;73.266;2022-09-16T08:29:40;101271.22;;;18.33;33.81
59168;BME280;44948;55.046;73.266;2022-09-16T08:31:22;101262.09;;;18.56;32.30
59168;BME280;44948;55.046;73.266;2022-09-16T08:33:04;101264.78;;;18.66;32.97
59168;BME280;44948;55.046;73.266;2022-09-16T08:34:47;101249.41;;;18.89;34.50
59168;BME280;44948;55.046;73.266;2022-09-16T08:36:29;101257.41;;;19.18;34.01
59168;BME280;44948;55.046;73.266;2022-09-16T08:38:14;101256.84;;;19.33;32.65
59168;BME280;44948;55.046;73.266;2022-09-16T08:39:56;101233.03;;;19.12;32.14
59168;BME280;44948;55.046;73.266;2022-09-16T08:49:42;101238.94;;;19.06;31.81
59168;BME280;44948;55.046;73.266;2022-09-16T08:51:26;101224.53;;;18.99;32.07
59168;BME280;44948;55.046;73.266;2022-09-16T08:53:18;101240.31;;;18.91;31.88
59168;BME280;44948;55.046;73.266;2022-09-16T08:55:10;101244.66;;;18.82;32.47
59168;BME280;44948;55.046;73.266;2022-09-16T08:56:58;101239.63;;;18.99;34.91
59168;BME280;44948;55.046;73.266;2022-09-16T08:58:44;101239.50;;;19.20;33.15
59168;BME280;44948;55.046;73.266;2022-09-16T09:00:29;101240.44;;;19.28;33.17
59168;BME280;44948;55.046;73.266;2022-09-16T09:02:36;101236.94;;;19.37;32.36
59168;BME280;44948;55.046;73.266;2022-09-16T09:04:19;101246.06;;;19.25;32.39
59168;BME280;44948;55.046;73.266;2022-09-16T09:06:05;101242.84;;;19.22;32.51
59168;BME280;44948;55.046;73.266;2022-09-16T09:16:00;101224.09;;;18.65;31.53
59168;BME280;44948;55.046;73.266;2022-09-16T09:21:40;101222.81;;;18.69;31.60
59168;BME280;44948;55.046;73.266;2022-09-16T09:27:53;101211.78;;;18.74;33.60
59168;BME280;44948;55.046;73.266;2022-09-16T09:32:13;101213.75;;;19.01;31.41
59168;BME280;44948;55.046;73.266;2022-09-16T09:36:22;101215.44;;;19.02;33.33
59168;BME280;44948;55.046;73.266;2022-09-16T09:40:07;101189.25;;;18.97;32.30
59168;BME280;44948;55.046;73.266;2022-09-16T09:42:20;101208.72;;;18.88;32.43
59168;BME280;44948;55.046;73.266;2022-09-16T09:46:29;101208.56;;;19.09;32.97
59168;BME280;44948;55.046;73.266;2022-09-16T09:48:42;101200.88;;;19.16;32.91
59168;BME280;44948;55.046;73.266;2022-09-16T09:50:46;101209.09;;;19.22;33.20
59168;BME280;44948;55.046;73.266;2022-09-16T09:52:39;101208.81;;;19.45;35.43
59168;BME280;44948;55.046;73.266;2022-09-16T09:58:45;101201.06;;;19.61;33.31
59168;BME280;44948;55.046;73.266;2022-09-16T10:00:16;101197.81;;;19.01;34.28
59168;BME280;44948;55.046;73.266;2022-09-16T10:01:59;101167.25;;;19.14;33.03
59168;BME280;44948;55.046;73.266;2022-09-16T10:03:42;101196.34;;;19.35;32.45
59168;BME280;44948;55.046;73.266;2022-09-16T10:05:27;101193.84;;;19.43;33.41
59168;BME280;44948;55.046;73.266;2022-09-16T10:07:13;101178.97;;;19.31;33.09
59168;BME280;44948;55.046;73.266;2022-09-16T10:08:57;101197.75;;;19.39;32.33
59168;BME280;44948;55.046;73.266;2022-09-16T10:10:51;101185.56;;;19.37;33.30
59168;BME280;44948;55.046;73.266;2022-09-16T10:12:35;101191.19;;;19.43;33.79
59168;BME280;44948;55.046;73.266;2022-09-16T10:16:10;101189.38;;;19.34;32.31
59168;BME280;44948;55.046;73.266;2022-09-16T10:17:53;101186.84;;;19.13;31.53
59168;BME280;44948;55.046;73.266;2022-09-16T10:19:49;101182.69;;;19.01;32.22
59168;BME280;44948;55.046;73.266;2022-09-16T10:22:07;101187.13;;;18.81;33.62
59168;BME280;44948;55.046;73.266;2022-09-16T10:23:55;101189.97;;;18.99;33.40
59168;BME280;44948;55.046;73.266;2022-09-16T10:25:38;101180.88;;;19.02;34.53
59168;BME280;44948;55.046;73.266;2022-09-16T10:27:32;101187.84;;;19.03;34.47
59168;BME280;44948;55.046;73.266;2022-09-16T10:29:18;101178.31;;;19.10;32.86
59168;BME280;44948;55.046;73.266;2022-09-16T10:31:01;101175.13;;;19.16;34.83
59168;BME280;44948;55.046;73.266;2022-09-16T10:33:04;101171.19;;;19.20;33.45
59168;BME280;44948;55.046;73.266;2022-09-16T10:34:48;101175.91;;;19.36;32.44
59168;BME280;44948;55.046;73.266;2022-09-16T10:36:33;101170.06;;;19.23;31.63
59168;BME280;44948;55.046;73.266;2022-09-16T10:38:20;101168.66;;;19.19;32.20
59168;BME280;44948;55.046;73.266;2022-09-16T10:40:03;101154.09;;;19.13;32.53
59168;BME280;44948;55.046;73.266;2022-09-16T10:41:49;101168.78;;;19.36;33.25
59168;BME280;44948;55.046;73.266;2022-09-16T10:43:31;101142.88;;;19.38;32.72